createdAt,value
2023-03-31T00:01:42.895Z,84.09
2023-03-31T00:04:13.417Z,84.02
2023-03-31T00:06:43.413Z,83.89
2023-03-31T00:09:13.319Z,84.02
2023-03-31T00:11:41.759Z,84.15
2023-03-31T00:14:09.819Z,84.47
2023-03-31T00:16:38.854Z,84.55
2023-03-31T00:19:10.190Z,84.18
2023-03-31T00:21:38.103Z,84.85
2023-03-31T00:24:08.465Z,85.16
2023-03-31T00:26:36.519Z,85.09
2023-03-31T00:29:05.591Z,85.39
2023-03-31T00:31:33.830Z,85.62
2023-03-31T00:34:01.744Z,85.97
2023-03-31T00:36:29.809Z,86.36
2023-03-31T00:39:00.539Z,86.36
2023-03-31T00:41:31.261Z,86.70
2023-03-31T00:44:22.618Z,87.60
2023-03-31T00:46:54.814Z,86.97
2023-03-31T00:49:28.326Z,86.86
2023-03-31T00:52:02.344Z,86.57
2023-03-31T00:54:33.839Z,86.61
2023-03-31T00:57:06.721Z,86.92
2023-03-31T00:59:39.624Z,87.15
2023-03-31T01:02:07.819Z,87.02
2023-03-31T01:04:40.521Z,87.07
2023-03-31T01:07:16.958Z,87.19
2023-03-31T01:09:47.363Z,88.18
2023-03-31T01:12:18.974Z,87.24
2023-03-31T01:14:47.258Z,88.02
2023-03-31T01:17:19.264Z,87.59
2023-03-31T01:20:11.583Z,87.97
2023-03-31T01:23:02.032Z,88.77
2023-03-31T01:26:16.911Z,89.15
2023-03-31T01:28:57.197Z,88.85
2023-03-31T01:32:02.074Z,88.89
2023-03-31T01:35:01.568Z,88.69
2023-03-31T01:37:56.468Z,88.95
2023-03-31T01:41:03.727Z,89.00
2023-03-31T01:43:42.308Z,88.92
2023-03-31T01:46:21.200Z,89.13
2023-03-31T01:48:57.739Z,89.89
2023-03-31T01:51:35.001Z,89.68
2023-03-31T01:54:10.279Z,90.15
2023-03-31T01:56:42.989Z,89.97
2023-03-31T01:59:14.706Z,89.83
2023-03-31T02:01:49.491Z,89.80
2023-03-31T02:04:23.367Z,90.27
2023-03-31T02:06:57.232Z,89.96
2023-03-31T02:09:30.506Z,89.89
2023-03-31T02:12:01.205Z,90.18
2023-03-31T02:14:32.331Z,89.82
2023-03-31T02:17:02.203Z,89.67
2023-03-31T02:19:34.910Z,89.43
2023-03-31T02:22:05.736Z,89.37
2023-03-31T02:24:36.432Z,89.25
2023-03-31T02:27:12.124Z,89.38
2023-03-31T02:29:40.175Z,88.88
2023-03-31T02:32:16.952Z,88.81
2023-03-31T02:34:44.816Z,88.75
2023-03-31T02:37:13.500Z,88.60
2023-03-31T02:39:47.541Z,88.11
2023-03-31T02:42:16.985Z,87.71
2023-03-31T02:44:45.010Z,87.75
2023-03-31T02:47:14.715Z,87.37
2023-03-31T02:49:49.465Z,87.11
2023-03-31T02:52:30.305Z,86.91
2023-03-31T02:55:28.132Z,86.68
2023-03-31T02:58:29.150Z,86.20
2023-03-31T03:01:09.943Z,86.10
2023-03-31T03:03:47.919Z,85.65
2023-03-31T03:06:33.484Z,85.32
2023-03-31T03:09:18.433Z,85.24
2023-03-31T03:11:53.642Z,85.10
2023-03-31T03:14:29.906Z,85.09
2023-03-31T03:17:03.607Z,84.56
2023-03-31T03:19:31.442Z,84.75
2023-03-31T03:21:59.721Z,84.63
2023-03-31T03:24:29.508Z,84.88
2023-03-31T03:26:58.476Z,85.21
2023-03-31T03:29:28.519Z,85.47
2023-03-31T03:31:56.528Z,85.58
2023-03-31T03:34:25.600Z,86.26
2023-03-31T03:36:53.468Z,86.13
2023-03-31T03:39:21.492Z,86.15
2023-03-31T03:41:49.255Z,86.24
2023-03-31T03:44:17.127Z,86.53
2023-03-31T03:46:46.290Z,86.55
2023-03-31T03:49:14.104Z,86.71
2023-03-31T03:51:41.924Z,86.88
2023-03-31T03:54:09.654Z,87.10
2023-03-31T03:56:37.417Z,87.24
2023-03-31T03:59:05.201Z,87.54
2023-03-31T04:01:32.929Z,87.66
2023-03-31T04:04:02.078Z,87.41
2023-03-31T04:06:29.866Z,87.66
2023-03-31T04:08:57.654Z,87.79
2023-03-31T04:11:25.944Z,87.85
2023-03-31T04:13:53.710Z,87.93
2023-03-31T04:16:22.967Z,88.13
2023-03-31T04:18:50.762Z,88.16
2023-03-31T04:21:25.130Z,88.44
2023-03-31T04:23:58.697Z,88.27
2023-03-31T04:26:31.501Z,88.23
2023-03-31T04:29:00.354Z,88.34
2023-03-31T04:31:30.900Z,88.50
2023-03-31T04:34:02.251Z,88.38
2023-03-31T04:36:32.369Z,88.43
2023-03-31T04:39:01.227Z,88.41
2023-03-31T04:41:32.124Z,88.83
2023-03-31T04:43:59.876Z,88.49
2023-03-31T04:46:27.967Z,88.54
2023-03-31T04:48:55.884Z,88.64
2023-03-31T04:51:23.637Z,88.53
2023-03-31T04:53:52.743Z,88.46
2023-03-31T04:56:20.706Z,88.46
2023-03-31T04:58:48.486Z,88.28
2023-03-31T05:01:18.068Z,88.45
2023-03-31T05:03:48.006Z,88.42
2023-03-31T05:06:16.363Z,88.62
2023-03-31T05:08:45.000Z,88.32
2023-03-31T05:11:14.096Z,88.65
2023-03-31T05:13:41.982Z,88.65
2023-03-31T05:16:10.876Z,88.71
2023-03-31T05:18:39.120Z,88.58
2023-03-31T05:21:12.007Z,88.95
2023-03-31T05:23:39.760Z,88.89
2023-03-31T05:26:08.047Z,88.99
2023-03-31T05:28:37.542Z,88.87
2023-03-31T05:31:06.836Z,88.72
2023-03-31T05:33:40.200Z,88.64
2023-03-31T05:36:10.078Z,88.70
2023-03-31T05:38:38.186Z,88.79
2023-03-31T05:41:06.452Z,88.83
2023-03-31T05:43:34.375Z,88.80
2023-03-31T05:46:03.925Z,88.92
2023-03-31T05:48:31.865Z,88.72
2023-03-31T05:50:59.817Z,88.63
2023-03-31T05:53:28.202Z,88.77
2023-03-31T05:55:59.913Z,88.65
2023-03-31T05:58:28.038Z,88.65
2023-03-31T06:01:06.003Z,88.92
2023-03-31T06:03:34.640Z,88.81
2023-03-31T06:06:03.114Z,88.42
2023-03-31T06:08:31.035Z,88.50
2023-03-31T06:10:58.911Z,88.52
2023-03-31T06:13:26.686Z,88.08
2023-03-31T06:15:55.780Z,88.12
2023-03-31T06:18:25.493Z,87.95
2023-03-31T06:20:53.307Z,88.03
2023-03-31T06:23:21.182Z,87.64
2023-03-31T06:25:51.676Z,87.60
2023-03-31T06:28:20.190Z,87.60
2023-03-31T06:30:48.532Z,87.25
2023-03-31T06:33:16.460Z,87.25
2023-03-31T06:35:45.612Z,87.06
2023-03-31T06:38:13.345Z,86.82
2023-03-31T06:40:41.229Z,86.67
2023-03-31T06:43:08.972Z,86.61
2023-03-31T06:45:38.267Z,86.17
2023-03-31T06:48:06.971Z,86.00
2023-03-31T06:50:34.919Z,85.55
2023-03-31T06:53:04.093Z,85.32
2023-03-31T06:55:33.746Z,85.70
2023-03-31T06:58:01.757Z,85.70
2023-03-31T07:00:29.769Z,85.62
2023-03-31T07:02:57.675Z,85.71
2023-03-31T07:05:27.443Z,85.65
2023-03-31T07:07:55.686Z,85.77
2023-03-31T07:10:26.712Z,85.48
2023-03-31T07:12:54.474Z,85.29
2023-03-31T07:15:23.363Z,85.25
2023-03-31T07:17:54.052Z,85.12
2023-03-31T07:20:22.076Z,85.24
2023-03-31T07:22:50.255Z,84.73
2023-03-31T07:25:18.843Z,84.47
2023-03-31T07:27:48.126Z,84.05
2023-03-31T07:30:17.935Z,83.76
2023-03-31T07:32:47.962Z,83.45
2023-03-31T07:35:16.043Z,83.22
2023-03-31T07:37:45.714Z,82.78
2023-03-31T07:40:16.612Z,82.40
2023-03-31T07:42:48.684Z,81.64
2023-03-31T07:45:19.516Z,81.78
2023-03-31T07:47:48.047Z,81.94
2023-03-31T07:50:16.789Z,81.62
2023-03-31T07:52:46.855Z,81.90
2023-03-31T07:55:15.705Z,81.65
2023-03-31T07:57:46.222Z,81.80
2023-03-31T08:00:15.784Z,81.82
2023-03-31T08:02:45.475Z,81.45
2023-03-31T08:05:14.880Z,81.71
2023-03-31T08:07:45.121Z,81.39
2023-03-31T08:10:16.754Z,80.85
2023-03-31T08:12:44.663Z,80.84
2023-03-31T08:15:12.826Z,80.70
2023-03-31T08:17:41.048Z,80.76
2023-03-31T08:20:11.161Z,81.28
2023-03-31T08:22:39.615Z,81.29
2023-03-31T08:25:09.060Z,81.43
2023-03-31T08:27:37.767Z,81.80
2023-03-31T08:30:06.563Z,81.40
2023-03-31T08:32:35.128Z,81.60
2023-03-31T08:35:02.975Z,81.35
2023-03-31T08:37:32.362Z,81.36
2023-03-31T08:40:00.329Z,81.43
2023-03-31T08:42:36.860Z,81.57
2023-03-31T08:45:07.262Z,82.07
2023-03-31T08:47:38.102Z,82.02
2023-03-31T08:50:09.070Z,82.24
2023-03-31T08:52:43.403Z,82.42
2023-03-31T08:55:14.790Z,82.80
2023-03-31T08:57:55.705Z,82.90
2023-03-31T09:00:23.484Z,82.47
2023-03-31T09:03:00.377Z,82.35
2023-03-31T09:05:53.132Z,82.33
2023-03-31T09:08:37.220Z,82.39
2023-03-31T09:11:11.952Z,82.70
2023-03-31T09:13:54.829Z,82.64
2023-03-31T09:16:28.006Z,82.78
2023-03-31T09:19:01.278Z,82.54
2023-03-31T09:21:32.981Z,82.65
2023-03-31T09:24:07.182Z,82.96
2023-03-31T09:26:42.224Z,82.67
2023-03-31T09:29:18.647Z,82.54
2023-03-31T09:31:47.099Z,83.16
2023-03-31T09:34:17.527Z,82.21
2023-03-31T09:36:45.611Z,81.68
2023-03-31T09:39:16.108Z,81.35
2023-03-31T09:41:47.964Z,81.28
2023-03-31T09:44:38.573Z,81.23
2023-03-31T09:47:11.616Z,80.75
2023-03-31T09:49:41.691Z,80.92
2023-03-31T09:52:29.198Z,80.96
2023-03-31T09:55:01.324Z,80.71
2023-03-31T09:57:33.547Z,80.56
2023-03-31T10:00:14.706Z,80.97
2023-03-31T10:02:45.688Z,80.83
2023-03-31T10:05:36.322Z,79.87
2023-03-31T10:08:23.851Z,80.15
2023-03-31T10:10:55.379Z,79.93
2023-03-31T10:13:26.140Z,79.93
2023-03-31T10:15:55.396Z,79.61
2023-03-31T10:18:34.644Z,79.40
2023-03-31T10:21:03.806Z,79.18
2023-03-31T10:23:33.824Z,79.14
2023-03-31T10:26:05.220Z,78.03
2023-03-31T10:28:35.967Z,77.45
2023-03-31T10:31:05.365Z,77.68
2023-03-31T10:33:35.712Z,77.41
2023-03-31T10:36:09.901Z,77.00
2023-03-31T10:38:40.590Z,76.08
2023-03-31T10:41:10.809Z,75.83
2023-03-31T10:43:41.887Z,75.18
2023-03-31T10:46:10.749Z,74.84
2023-03-31T10:48:41.515Z,74.35
2023-03-31T10:51:16.130Z,73.76
2023-03-31T10:53:46.198Z,73.90
2023-03-31T10:56:31.732Z,72.49
2023-03-31T10:59:28.162Z,72.68
2023-03-31T11:02:17.400Z,72.88
2023-03-31T11:04:58.252Z,72.74
2023-03-31T11:07:38.738Z,72.19
2023-03-31T11:10:35.179Z,72.01
2023-03-31T11:13:12.465Z,72.30
2023-03-31T11:15:47.417Z,71.92
2023-03-31T11:18:37.548Z,71.56
2023-03-31T11:21:17.201Z,71.21
2023-03-31T11:23:51.927Z,71.14
2023-03-31T11:26:29.194Z,71.80
2023-03-31T11:29:16.297Z,71.92
2023-03-31T11:31:52.733Z,72.32
2023-03-31T11:34:41.290Z,72.64
2023-03-31T11:37:21.410Z,73.18
2023-03-31T11:40:07.726Z,72.93
2023-03-31T11:42:38.160Z,72.80
2023-03-31T11:45:17.011Z,73.49
2023-03-31T11:47:47.768Z,72.69
2023-03-31T11:50:19.193Z,72.70
2023-03-31T11:52:55.570Z,72.19
2023-03-31T11:55:28.314Z,72.04
2023-03-31T11:58:03.521Z,71.94
2023-03-31T12:00:37.392Z,71.88
2023-03-31T12:03:13.184Z,72.03
2023-03-31T12:05:47.458Z,72.37
2023-03-31T12:08:20.060Z,72.74
2023-03-31T12:10:52.900Z,73.08
2023-03-31T12:13:41.222Z,72.02
2023-03-31T12:16:18.236Z,72.41
2023-03-31T12:18:55.985Z,71.88
2023-03-31T12:21:26.636Z,71.14
2023-03-31T12:23:54.435Z,70.27
2023-03-31T12:26:38.608Z,69.42
2023-03-31T12:29:13.365Z,68.47
2023-03-31T12:31:45.402Z,68.40
2023-03-31T12:34:17.355Z,67.59
2023-03-31T12:37:01.882Z,65.51
2023-03-31T12:39:40.667Z,66.03
2023-03-31T12:42:37.151Z,66.49
2023-03-31T12:45:13.074Z,65.72
2023-03-31T12:48:00.984Z,64.93
2023-03-31T12:50:40.050Z,65.02
2023-03-31T12:53:19.885Z,63.37
2023-03-31T12:55:49.994Z,64.18
2023-03-31T12:58:40.685Z,62.29
2023-03-31T13:01:16.676Z,62.16
2023-03-31T13:03:49.054Z,61.98
2023-03-31T13:06:55.136Z,63.74
2023-03-31T13:09:44.914Z,62.54
2023-03-31T13:12:20.745Z,60.17
2023-03-31T13:14:51.777Z,64.08
2023-03-31T13:17:27.052Z,64.35
2023-03-31T13:19:58.055Z,63.23
2023-03-31T13:22:32.320Z,63.96
2023-03-31T13:25:42.554Z,64.48
2023-03-31T13:28:32.700Z,66.43
2023-03-31T13:31:02.864Z,66.69
2023-03-31T13:33:46.141Z,66.04
2023-03-31T13:36:49.575Z,67.15
2023-03-31T13:39:50.318Z,67.50
2023-03-31T13:42:41.248Z,68.40
2023-03-31T13:45:21.150Z,67.38
2023-03-31T13:48:01.205Z,67.60
2023-03-31T13:50:40.913Z,67.69
2023-03-31T13:53:28.511Z,68.90
2023-03-31T13:56:08.175Z,68.99
2023-03-31T13:58:57.982Z,69.48
2023-03-31T14:01:45.735Z,67.84
2023-03-31T14:04:27.604Z,67.93
2023-03-31T14:06:59.369Z,67.56
2023-03-31T14:09:33.305Z,66.79
2023-03-31T14:12:01.716Z,66.70
2023-03-31T14:14:29.857Z,66.61
2023-03-31T14:17:01.674Z,65.85
2023-03-31T14:19:58.889Z,65.26
2023-03-31T14:22:45.498Z,65.55
2023-03-31T14:25:21.653Z,65.37
2023-03-31T14:28:00.955Z,65.45
2023-03-31T14:30:38.531Z,65.62
2023-03-31T14:33:21.904Z,65.77
2023-03-31T14:35:59.306Z,66.20
2023-03-31T14:38:29.984Z,67.03
2023-03-31T14:41:01.417Z,66.57
2023-03-31T14:43:33.534Z,67.01
2023-03-31T14:46:02.200Z,66.78
2023-03-31T14:48:31.255Z,67.27
2023-03-31T14:51:02.249Z,67.17
2023-03-31T14:53:30.113Z,67.13
2023-03-31T14:56:04.209Z,67.48
2023-03-31T14:58:35.805Z,67.32
2023-03-31T15:01:06.916Z,67.55
2023-03-31T15:03:36.316Z,68.11
2023-03-31T15:06:05.871Z,68.24
2023-03-31T15:08:34.224Z,68.49
2023-03-31T15:11:12.833Z,68.91
2023-03-31T15:13:56.691Z,68.92
2023-03-31T15:16:32.824Z,68.75
2023-03-31T15:19:02.343Z,69.33
2023-03-31T15:21:35.474Z,69.47
2023-03-31T15:24:05.850Z,69.54
2023-03-31T15:26:42.099Z,69.74
2023-03-31T15:29:14.636Z,69.72
2023-03-31T15:31:42.674Z,69.48
2023-03-31T15:34:16.796Z,69.89
2023-03-31T15:36:44.848Z,70.20
2023-03-31T15:39:15.554Z,70.20
2023-03-31T15:41:48.313Z,70.33
2023-03-31T15:44:46.864Z,71.14
2023-03-31T15:47:18.680Z,70.96
2023-03-31T15:49:51.775Z,70.75
2023-03-31T15:52:27.311Z,70.56
2023-03-31T15:54:55.460Z,70.95
2023-03-31T15:57:32.999Z,70.82
2023-03-31T16:00:01.143Z,70.89
2023-03-31T16:02:41.560Z,71.43
2023-03-31T16:08:15.836Z,72.00
2023-03-31T16:10:43.863Z,72.26
2023-03-31T16:13:23.051Z,72.63
2023-03-31T16:15:54.453Z,72.74
2023-03-31T16:18:29.650Z,72.75
2023-03-31T16:21:01.505Z,72.96
2023-03-31T16:23:32.719Z,73.11
2023-03-31T16:26:01.241Z,73.21
2023-03-31T16:28:33.809Z,73.34
2023-03-31T16:31:02.149Z,73.39
2023-03-31T16:33:31.350Z,73.40
2023-03-31T16:35:59.302Z,73.79
2023-03-31T16:38:28.903Z,74.30
2023-03-31T16:40:58.746Z,74.43
2023-03-31T16:43:28.432Z,74.72
2023-03-31T16:45:59.203Z,75.09
2023-03-31T16:48:29.399Z,75.34
2023-03-31T16:51:00.409Z,75.39
2023-03-31T16:53:29.647Z,75.92
2023-03-31T16:55:58.099Z,75.94
2023-03-31T16:58:28.428Z,76.22
2023-03-31T17:00:58.764Z,77.29
2023-03-31T17:03:27.451Z,77.26
2023-03-31T17:05:59.032Z,77.62
2023-03-31T17:08:28.607Z,78.59
2023-03-31T17:10:58.776Z,78.61
2023-03-31T17:13:27.170Z,79.57
2023-03-31T17:16:01.457Z,81.13
2023-03-31T17:18:42.210Z,81.61
2023-03-31T17:21:11.925Z,82.02
2023-03-31T17:23:40.495Z,82.20
2023-03-31T17:26:10.623Z,82.15
2023-03-31T17:28:38.624Z,82.15
2023-03-31T17:31:12.220Z,82.57
2023-03-31T17:33:40.159Z,82.05
2023-03-31T17:36:09.889Z,82.23
2023-03-31T17:38:38.413Z,82.54
2023-03-31T17:41:07.869Z,82.66
2023-03-31T17:43:36.166Z,82.80
2023-03-31T17:46:05.098Z,82.81
2023-03-31T17:48:34.369Z,82.80
2023-03-31T17:51:05.763Z,83.02
2023-03-31T17:53:35.487Z,82.90
2023-03-31T17:56:03.468Z,83.04
2023-03-31T17:58:32.199Z,83.38
2023-03-31T18:01:00.350Z,84.10
2023-03-31T18:03:29.313Z,83.80
2023-03-31T18:05:57.548Z,83.93
2023-03-31T18:08:25.365Z,84.18
2023-03-31T18:10:54.444Z,84.44
2023-03-31T18:13:22.811Z,84.17
2023-03-31T18:15:52.906Z,84.86
2023-03-31T18:18:23.207Z,85.53
2023-03-31T18:20:50.941Z,85.25
2023-03-31T18:23:18.689Z,84.58
2023-03-31T18:25:47.159Z,85.08
2023-03-31T18:28:17.947Z,84.61
2023-03-31T18:30:47.244Z,84.56
2023-03-31T18:33:15.553Z,84.73
2023-03-31T18:35:43.358Z,84.73
2023-03-31T18:38:11.292Z,84.52
2023-03-31T18:40:39.118Z,84.42
2023-03-31T18:43:08.166Z,84.34
2023-03-31T18:45:38.542Z,84.27
2023-03-31T18:48:06.514Z,84.19
2023-03-31T18:50:34.321Z,83.90
2023-03-31T18:53:03.374Z,84.14
2023-03-31T18:55:31.538Z,84.03
2023-03-31T18:57:59.331Z,84.02
2023-03-31T19:00:27.165Z,83.95
2023-03-31T19:02:56.502Z,83.86
2023-03-31T19:05:24.319Z,84.02
2023-03-31T19:07:52.244Z,84.45
2023-03-31T19:10:20.035Z,84.39
2023-03-31T19:12:48.561Z,84.17
2023-03-31T19:15:16.845Z,84.11
2023-03-31T19:17:44.629Z,84.11
2023-03-31T19:20:16.604Z,84.51
2023-03-31T19:22:45.796Z,84.36
2023-03-31T19:25:14.566Z,84.07
2023-03-31T19:27:42.526Z,84.10
2023-03-31T19:30:17.328Z,84.22
2023-03-31T19:32:45.739Z,84.07
2023-03-31T19:35:15.325Z,84.08
2023-03-31T19:37:43.510Z,84.01
2023-03-31T19:40:11.352Z,83.93
2023-03-31T19:42:39.849Z,83.81
2023-03-31T19:45:08.236Z,83.99
2023-03-31T19:47:36.595Z,84.04
2023-03-31T19:50:04.809Z,83.64
2023-03-31T19:52:34.100Z,83.83
2023-03-31T19:55:01.871Z,84.17
2023-03-31T19:57:29.947Z,84.05
2023-03-31T19:59:57.804Z,84.00
2023-03-31T20:02:26.558Z,84.17
2023-03-31T20:04:54.538Z,84.13
2023-03-31T20:07:23.110Z,84.24
2023-03-31T20:09:52.503Z,84.45
2023-03-31T20:12:20.761Z,85.11
2023-03-31T20:14:48.603Z,85.42
2023-03-31T20:17:16.917Z,84.97
2023-03-31T20:19:44.988Z,85.32
2023-03-31T20:22:13.063Z,85.49
2023-03-31T20:24:40.837Z,85.43
2023-03-31T20:27:10.354Z,85.87
2023-03-31T20:29:38.361Z,85.80
2023-03-31T20:32:06.380Z,86.13
2023-03-31T20:34:34.310Z,86.06
2023-03-31T20:37:02.209Z,85.94
2023-03-31T20:39:30.042Z,86.24
2023-03-31T20:41:57.822Z,86.03
2023-03-31T20:44:26.941Z,86.24
2023-03-31T20:46:55.952Z,86.30
2023-03-31T20:49:23.766Z,86.54
2023-03-31T20:51:51.516Z,86.51
2023-03-31T20:54:19.306Z,86.49
2023-03-31T20:56:47.190Z,86.45
2023-03-31T20:59:15.990Z,86.41
2023-03-31T21:01:47.230Z,86.34
2023-03-31T21:04:16.743Z,86.77
2023-03-31T21:06:46.358Z,86.78
2023-03-31T21:09:16.244Z,87.09
2023-03-31T21:11:44.291Z,86.94
2023-03-31T21:14:14.404Z,87.07
2023-03-31T21:16:42.395Z,87.22
2023-03-31T21:19:11.994Z,87.51
2023-03-31T21:21:41.211Z,87.52
2023-03-31T21:24:11.112Z,87.38
2023-03-31T21:26:39.342Z,87.62
2023-03-31T21:29:07.140Z,87.83
2023-03-31T21:31:35.160Z,87.65
2023-03-31T21:34:03.355Z,87.87
2023-03-31T21:36:32.469Z,88.31
2023-03-31T21:39:00.226Z,88.01
2023-03-31T21:41:29.812Z,88.12
2023-03-31T21:44:00.465Z,87.98
2023-03-31T21:46:30.976Z,88.20
2023-03-31T21:48:58.828Z,88.19
2023-03-31T21:51:28.446Z,88.27
2023-03-31T21:53:57.684Z,88.61
2023-03-31T21:56:27.687Z,88.17
2023-03-31T21:58:55.923Z,88.33
2023-03-31T22:01:24.109Z,88.68
2023-03-31T22:03:52.226Z,88.34
2023-03-31T22:06:21.451Z,88.46
2023-03-31T22:08:49.545Z,88.54
2023-03-31T22:11:18.938Z,88.66
2023-03-31T22:13:46.796Z,88.75
2023-03-31T22:16:18.684Z,89.00
2023-03-31T22:18:49.931Z,88.93
2023-03-31T22:21:20.759Z,88.64
2023-03-31T22:23:48.632Z,89.16
2023-03-31T22:26:17.733Z,88.87
2023-03-31T22:28:45.864Z,89.02
2023-03-31T22:31:13.710Z,89.05
2023-03-31T22:33:41.687Z,88.99
2023-03-31T22:36:09.942Z,89.20
2023-03-31T22:38:37.750Z,89.00
2023-03-31T22:41:06.691Z,89.05
2023-03-31T22:43:35.885Z,89.50
2023-03-31T22:46:05.127Z,89.75
2023-03-31T22:48:32.998Z,89.58
2023-03-31T22:51:03.847Z,89.94
2023-03-31T22:53:32.073Z,90.07
2023-03-31T22:56:05.097Z,90.33
2023-03-31T22:58:32.882Z,90.43
2023-03-31T23:01:02.905Z,90.40
2023-03-31T23:03:31.154Z,90.57
2023-03-31T23:06:03.133Z,90.59
2023-03-31T23:08:31.038Z,90.65
2023-03-31T23:11:00.012Z,90.66
2023-03-31T23:13:29.536Z,90.66
2023-03-31T23:15:57.631Z,90.67
2023-03-31T23:18:27.039Z,91.07
2023-03-31T23:20:54.781Z,90.63
2023-03-31T23:23:22.553Z,90.68
2023-03-31T23:25:50.325Z,90.52
2023-03-31T23:28:18.412Z,90.50
2023-03-31T23:30:53.020Z,90.62
2023-03-31T23:33:20.834Z,90.34
2023-03-31T23:35:50.342Z,90.32
2023-03-31T23:38:18.153Z,89.95
2023-03-31T23:40:46.379Z,90.21
2023-03-31T23:43:14.412Z,90.13
2023-03-31T23:45:42.237Z,90.26
2023-03-31T23:48:10.585Z,89.97
2023-03-31T23:50:38.902Z,89.79
2023-03-31T23:53:08.042Z,89.95
2023-03-31T23:55:36.458Z,89.65
2023-03-31T23:58:04.378Z,89.69
